Kenneth Carl — WDF8246 — position and weather

sailwx.info

Track history (hours):
 
Tides and Currents Weather Stations Pressure Air Temp Water Temp Dewpoint Dewpoint Depression Visibility Wind Speed Wind Dir Waves Ship Positions

Kenneth Carl

Owner: So. Cal. Ship Services, Inc., San Pedro, CA. More information available from US FCC via Universal Licensing System and Coast Guard Vessel Documentation Center.

Last reported at 2016-Dec-09 01:11 UTC. Time now 2016-Dec-09 09:45 UTC.
Position N 33°44' W 118°16'.

Length 31 m; draft 3 m.

Type: Ship. MMSI: 367492920.

Date/timePositionNaut miles runAvg speedWind from/ knotsBaromVisibWave heightAir tempDewpointWater temp
2016-Dec-09 01:11N 33°44' W 118°16'5 7.6
2016-Dec-09 00:33N 33°44' W 118°11'5 4.8
2016-Dec-08 23:33N 33°41' W 118°06'4 3.8
2016-Dec-08 22:33N 33°38' W 118°07'2 2.1
2016-Dec-08 21:33N 33°36' W 118°08'3 2.5
2016-Dec-08 20:33N 33°34' W 118°06'2 1.3
2016-Dec-08 19:14N 33°35' W 118°07'3 4.0
2016-Dec-08 18:33N 33°33' W 118°06'3 2.5
2016-Dec-08 17:31N 33°34' W 118°08'1 0.6
2016-Dec-08 16:33N 33°34' W 118°08'  
2016-Dec-05 21:16N 33°44' W 118°16'0 0.0
2016-Dec-05 20:25N 33°44' W 118°16'0 0.0
2016-Dec-05 19:25N 33°44' W 118°16'0 0.0
2016-Dec-05 16:28N 33°44' W 118°16'0 0.0
2016-Dec-05 15:31N 33°44' W 118°16'0 0.0
2016-Dec-05 14:13N 33°44' W 118°16'0 0.0
2016-Dec-05 13:31N 33°44' W 118°16'0 0.0
2016-Dec-05 12:31N 33°44' W 118°16'0 0.0
2016-Dec-05 11:10N 33°44' W 118°16'0 0.0
2016-Dec-05 10:31N 33°44' W 118°16'0 0.0
2016-Dec-05 09:28N 33°44' W 118°16'0 0.0
2016-Dec-05 08:22N 33°44' W 118°16'0 0.0
2016-Dec-05 07:28N 33°44' W 118°16'0 0.0
2016-Dec-05 06:28N 33°44' W 118°16'0 0.0
2016-Dec-05 05:31N 33°44' W 118°16'0 0.0
2016-Dec-05 04:31N 33°44' W 118°16'0 0.0
2016-Dec-05 02:16N 33°44' W 118°16'0 0.0
2016-Dec-05 01:22N 33°44' W 118°16'0 0.0
2016-Dec-04 23:31N 33°44' W 118°16'0 0.0
2016-Dec-04 18:31N 33°44' W 118°16'0 0.0
2016-Dec-04 17:31N 33°44' W 118°16'0 0.0
2016-Dec-04 16:31N 33°44' W 118°16'0 0.0
2016-Dec-04 15:31N 33°44' W 118°16'0 0.0
2016-Dec-04 14:16N 33°44' W 118°16'0 0.0
2016-Dec-04 13:31N 33°44' W 118°16'0 0.0
2016-Dec-04 12:31N 33°44' W 118°16'0 0.0
2016-Dec-04 11:31N 33°44' W 118°16'0 0.0
2016-Dec-04 10:31N 33°44' W 118°16'0 0.0
2016-Dec-04 09:28N 33°44' W 118°16'0 0.0
2016-Dec-04 08:31N 33°44' W 118°16'0 0.0
2016-Dec-04 07:31N 33°44' W 118°16'0 0.0
2016-Dec-04 06:31N 33°44' W 118°16'0 0.0
2016-Dec-04 05:31N 33°44' W 118°16'0 0.0
2016-Dec-04 04:31N 33°44' W 118°16'0 0.0
2016-Dec-04 02:28N 33°44' W 118°16'0 0.0
2016-Dec-04 01:19N 33°44' W 118°16'0 0.0
2016-Dec-01 22:31N 33°44' W 118°16'0 0.0
2016-Dec-01 21:33N 33°44' W 118°16'0 0.0
2016-Dec-01 04:08N 33°44' W 118°16'0 0.0
2016-Dec-01 03:08N 33°44' W 118°16'0 0.0
2016-Dec-01 00:29N 33°44' W 118°16'0 0.0
2016-Nov-30 02:29N 33°44' W 118°16'0 0.0
2016-Nov-29 16:32N 33°44' W 118°16'0 0.0
2016-Nov-29 15:32N 33°44' W 118°16'0 0.0
2016-Nov-29 14:29N 33°44' W 118°16'0 0.0
2016-Nov-29 13:32N 33°44' W 118°16'0 0.0
2016-Nov-29 12:26N 33°44' W 118°16'  
Track history (hours):
 
Tides and Currents Weather Stations Pressure Air Temp Water Temp Dewpoint Dewpoint Depression Visibility Wind Speed Wind Dir Waves Ship Positions

Kenneth Carl

Owner: So. Cal. Ship Services, Inc., San Pedro, CA. More information available from US FCC via Universal Licensing System and Coast Guard Vessel Documentation Center.

Last reported at 2016-Dec-09 01:11 UTC. Time now 2016-Dec-09 09:45 UTC.
Position N 33°44' W 118°16'.

Length 31 m; draft 3 m.

Type: Ship. MMSI: 367492920.

Date/timePositionNaut miles runAvg speedWind from/ knotsBaromVisibWave heightAir tempDewpointWater temp
2016-Dec-09 01:11N 33°44' W 118°16'5 7.6
2016-Dec-09 00:33N 33°44' W 118°11'5 4.8
2016-Dec-08 23:33N 33°41' W 118°06'4 3.8
2016-Dec-08 22:33N 33°38' W 118°07'2 2.1
2016-Dec-08 21:33N 33°36' W 118°08'3 2.5
2016-Dec-08 20:33N 33°34' W 118°06'2 1.3
2016-Dec-08 19:14N 33°35' W 118°07'3 4.0
2016-Dec-08 18:33N 33°33' W 118°06'3 2.5
2016-Dec-08 17:31N 33°34' W 118°08'1 0.6
2016-Dec-08 16:33N 33°34' W 118°08'  
2016-Dec-05 21:16N 33°44' W 118°16'0 0.0
2016-Dec-05 20:25N 33°44' W 118°16'0 0.0
2016-Dec-05 19:25N 33°44' W 118°16'0 0.0
2016-Dec-05 16:28N 33°44' W 118°16'0 0.0
2016-Dec-05 15:31N 33°44' W 118°16'0 0.0
2016-Dec-05 14:13N 33°44' W 118°16'0 0.0
2016-Dec-05 13:31N 33°44' W 118°16'0 0.0
2016-Dec-05 12:31N 33°44' W 118°16'0 0.0
2016-Dec-05 11:10N 33°44' W 118°16'0 0.0
2016-Dec-05 10:31N 33°44' W 118°16'0 0.0
2016-Dec-05 09:28N 33°44' W 118°16'0 0.0
2016-Dec-05 08:22N 33°44' W 118°16'0 0.0
2016-Dec-05 07:28N 33°44' W 118°16'0 0.0
2016-Dec-05 06:28N 33°44' W 118°16'0 0.0
2016-Dec-05 05:31N 33°44' W 118°16'0 0.0
2016-Dec-05 04:31N 33°44' W 118°16'0 0.0
2016-Dec-05 02:16N 33°44' W 118°16'0 0.0
2016-Dec-05 01:22N 33°44' W 118°16'0 0.0
2016-Dec-04 23:31N 33°44' W 118°16'0 0.0
2016-Dec-04 18:31N 33°44' W 118°16'0 0.0
2016-Dec-04 17:31N 33°44' W 118°16'0 0.0
2016-Dec-04 16:31N 33°44' W 118°16'0 0.0
2016-Dec-04 15:31N 33°44' W 118°16'0 0.0
2016-Dec-04 14:16N 33°44' W 118°16'0 0.0
2016-Dec-04 13:31N 33°44' W 118°16'0 0.0
2016-Dec-04 12:31N 33°44' W 118°16'0 0.0
2016-Dec-04 11:31N 33°44' W 118°16'0 0.0
2016-Dec-04 10:31N 33°44' W 118°16'0 0.0
2016-Dec-04 09:28N 33°44' W 118°16'0 0.0
2016-Dec-04 08:31N 33°44' W 118°16'0 0.0
2016-Dec-04 07:31N 33°44' W 118°16'0 0.0
2016-Dec-04 06:31N 33°44' W 118°16'0 0.0
2016-Dec-04 05:31N 33°44' W 118°16'0 0.0
2016-Dec-04 04:31N 33°44' W 118°16'0 0.0
2016-Dec-04 02:28N 33°44' W 118°16'0 0.0
2016-Dec-04 01:19N 33°44' W 118°16'0 0.0
2016-Dec-01 22:31N 33°44' W 118°16'0 0.0
2016-Dec-01 21:33N 33°44' W 118°16'0 0.0
2016-Dec-01 04:08N 33°44' W 118°16'0 0.0
2016-Dec-01 03:08N 33°44' W 118°16'0 0.0
2016-Dec-01 00:29N 33°44' W 118°16'0 0.0
2016-Nov-30 02:29N 33°44' W 118°16'0 0.0
2016-Nov-29 16:32N 33°44' W 118°16'0 0.0
2016-Nov-29 15:32N 33°44' W 118°16'0 0.0
2016-Nov-29 14:29N 33°44' W 118°16'0 0.0
2016-Nov-29 13:32N 33°44' W 118°16'0 0.0
2016-Nov-29 12:26N 33°44' W 118°16'  

Dump ship's entire track history